createdAt,value
2022-12-24T00:01:17.197Z,100641.09
2022-12-24T00:03:43.814Z,100634.13
2022-12-24T00:06:20.290Z,100644.91
2022-12-24T00:08:47.159Z,100648.47
2022-12-24T00:11:13.960Z,100650.19
2022-12-24T00:13:40.528Z,100653.63
2022-12-24T00:16:07.276Z,100653.63
2022-12-24T00:18:34.357Z,100640.75
2022-12-24T00:21:06.782Z,100645.75
2022-12-24T00:23:35.617Z,100666.94
2022-12-24T00:26:04.557Z,100654.22
2022-12-24T00:28:31.150Z,100661.09
2022-12-24T00:30:57.973Z,100668.88
2022-12-24T00:33:24.965Z,100691.25
2022-12-24T00:35:52.542Z,100693.28
2022-12-24T00:38:19.282Z,100694.69
2022-12-24T00:40:48.209Z,100685.28
2022-12-24T00:43:14.852Z,100684.16
2022-12-24T00:45:44.154Z,100695.78
2022-12-24T00:48:10.752Z,100701.22
2022-12-24T00:50:37.318Z,100710.09
2022-12-24T00:53:06.465Z,100702.38
2022-12-24T00:55:33.024Z,100708.81
2022-12-24T00:57:59.595Z,100709.72
2022-12-24T01:00:26.219Z,100718.75
2022-12-24T01:02:52.967Z,100724.19
2022-12-24T01:05:23.109Z,100731.53
2022-12-24T01:07:49.712Z,100722.56
2022-12-24T01:10:19.541Z,100738.63
2022-12-24T01:12:47.029Z,100735.91
2022-12-24T01:15:14.622Z,100727.16
2022-12-24T01:17:41.434Z,100736.69
2022-12-24T01:20:13.634Z,100735.94
2022-12-24T01:22:42.611Z,100736.25
2022-12-24T01:25:09.860Z,100737.28
2022-12-24T01:27:36.490Z,100743.41
2022-12-24T01:30:04.813Z,100751.91
2022-12-24T01:32:31.383Z,100748.22
2022-12-24T01:34:58.042Z,100763.97
2022-12-24T01:37:24.575Z,100751.38
2022-12-24T01:39:51.179Z,100759.00
2022-12-24T01:42:41.989Z,100768.31
2022-12-24T01:45:45.807Z,100770.78
2022-12-24T01:48:38.992Z,100765.19
2022-12-24T01:51:19.429Z,100753.31
2022-12-24T01:53:51.461Z,100772.66
2022-12-24T01:56:19.883Z,100760.78
2022-12-24T01:58:51.433Z,100774.94
2022-12-24T02:01:18.275Z,100792.47
2022-12-24T02:03:45.107Z,100794.63
2022-12-24T02:06:20.947Z,100797.63
2022-12-24T02:08:47.761Z,100806.50
2022-12-24T02:11:18.479Z,100812.53
2022-12-24T02:13:51.158Z,100804.78
2022-12-24T02:16:41.217Z,100800.34
2022-12-24T02:19:35.116Z,100797.72
2022-12-24T02:22:17.652Z,100808.34
2022-12-24T02:25:05.912Z,100808.06
2022-12-24T02:27:51.239Z,100806.47
2022-12-24T02:30:24.746Z,100810.91
2022-12-24T02:33:26.857Z,100811.34
2022-12-24T02:36:02.347Z,100812.75
2022-12-24T02:38:42.177Z,100811.47
2022-12-24T02:41:14.065Z,100814.59
2022-12-24T02:43:44.521Z,100809.13
2022-12-24T02:46:19.133Z,100813.31
2022-12-24T02:48:48.649Z,100805.28
2022-12-24T02:51:15.774Z,100829.38
2022-12-24T02:53:42.903Z,100824.06
2022-12-24T02:56:27.648Z,100833.53
2022-12-24T02:59:14.491Z,100829.34
2022-12-24T03:01:53.211Z,100819.38
2022-12-24T03:04:39.955Z,100824.97
2022-12-24T03:07:21.687Z,100826.50
2022-12-24T03:09:55.780Z,100842.88
2022-12-24T03:12:36.761Z,100823.66
2022-12-24T03:15:05.182Z,100832.09
2022-12-24T03:17:37.036Z,100837.09
2022-12-24T03:20:05.973Z,100809.03
2022-12-24T03:22:38.116Z,100836.66
2022-12-24T03:25:05.193Z,100828.63
2022-12-24T03:27:34.327Z,100836.06
2022-12-24T03:30:02.267Z,100844.09
2022-12-24T03:32:33.913Z,100842.78
2022-12-24T03:35:00.842Z,100843.69
2022-12-24T03:37:27.769Z,100846.44
2022-12-24T03:39:54.338Z,100842.38
2022-12-24T03:42:20.910Z,100834.78
2022-12-24T03:44:47.497Z,100837.50
2022-12-24T03:47:16.334Z,100846.00
2022-12-24T03:49:43.289Z,100840.97
2022-12-24T03:52:09.823Z,100838.25
2022-12-24T03:54:39.239Z,100849.97
2022-12-24T03:57:08.089Z,100856.28
2022-12-24T03:59:34.647Z,100856.56
2022-12-24T04:02:01.423Z,100866.31
2022-12-24T04:04:28.163Z,100855.09
2022-12-24T04:06:54.752Z,100859.25
2022-12-24T04:09:21.322Z,100860.97
2022-12-24T04:11:47.874Z,100860.38
2022-12-24T04:14:16.592Z,100853.75
2022-12-24T04:16:43.180Z,100856.63
2022-12-24T04:19:09.762Z,100867.09
2022-12-24T04:21:38.881Z,100865.66
2022-12-24T04:24:05.928Z,100863.66
2022-12-24T04:26:32.456Z,100874.38
2022-12-24T04:28:58.994Z,100882.41
2022-12-24T04:31:25.631Z,100871.22
2022-12-24T04:33:56.801Z,100878.53
2022-12-24T04:36:23.334Z,100869.06
2022-12-24T04:38:49.930Z,100877.25
2022-12-24T04:41:23.944Z,100875.94
2022-12-24T04:43:52.539Z,100883.53
2022-12-24T04:46:24.411Z,100895.31
2022-12-24T04:48:53.013Z,100893.56
2022-12-24T04:51:20.680Z,100891.00
2022-12-24T04:53:47.438Z,100900.59
2022-12-24T04:56:21.219Z,100897.59
2022-12-24T04:58:53.520Z,100892.28
2022-12-24T05:01:26.060Z,100897.59
2022-12-24T05:03:53.716Z,100899.28
2022-12-24T05:06:23.513Z,100899.28
2022-12-24T05:08:53.490Z,100888.25
2022-12-24T05:11:20.032Z,100887.13
2022-12-24T05:13:48.116Z,100906.31
2022-12-24T05:16:19.723Z,100901.72
2022-12-24T05:18:46.569Z,100911.78
2022-12-24T05:21:33.651Z,100906.31
2022-12-24T05:24:18.937Z,100909.19
2022-12-24T05:26:53.592Z,100908.34
2022-12-24T05:29:20.217Z,100906.06
2022-12-24T05:31:46.846Z,100909.19
2022-12-24T05:34:16.969Z,100911.06
2022-12-24T05:36:47.357Z,100902.19
2022-12-24T05:39:18.206Z,100900.59
2022-12-24T05:41:45.703Z,100911.22
2022-12-24T05:44:12.434Z,100912.94
2022-12-24T05:46:39.095Z,100924.03
2022-12-24T05:49:08.063Z,100923.16
2022-12-24T05:51:37.267Z,100916.13
2022-12-24T05:54:04.661Z,100928.59
2022-12-24T05:56:31.287Z,100928.06
2022-12-24T05:59:00.579Z,100935.09
2022-12-24T06:01:27.743Z,100927.66
2022-12-24T06:03:54.372Z,100938.41
2022-12-24T06:06:27.632Z,100953.16
2022-12-24T06:08:55.131Z,100953.31
2022-12-24T06:11:26.225Z,100952.31
2022-12-24T06:13:53.583Z,100961.34
2022-12-24T06:16:21.173Z,100958.06
2022-12-24T06:18:47.931Z,100956.78
2022-12-24T06:21:15.828Z,100945.66
2022-12-24T06:23:46.364Z,100955.84
2022-12-24T06:26:19.493Z,100968.66
2022-12-24T06:28:50.077Z,100959.72
2022-12-24T06:31:19.709Z,100967.50
2022-12-24T06:33:49.229Z,100951.28
2022-12-24T06:36:21.904Z,100976.72
2022-12-24T06:38:51.854Z,100970.53
2022-12-24T06:41:19.675Z,100979.75
2022-12-24T06:43:48.292Z,100970.25
2022-12-24T06:46:15.632Z,100955.22
2022-12-24T06:48:46.464Z,100969.69
2022-12-24T06:51:14.910Z,100977.72
2022-12-24T06:53:41.504Z,100971.84
2022-12-24T06:56:10.780Z,100984.31
2022-12-24T06:58:40.810Z,100973.72
2022-12-24T07:01:10.236Z,100965.38
2022-12-24T07:03:37.328Z,100993.25
2022-12-24T07:06:04.442Z,100972.44
2022-12-24T07:08:33.704Z,100972.41
2022-12-24T07:11:06.497Z,101000.53
2022-12-24T07:17:03.489Z,100915.47
2022-12-24T07:19:34.902Z,100989.63
2022-12-24T07:22:01.515Z,100995.06
2022-12-24T07:24:28.295Z,101001.56
2022-12-24T07:26:54.936Z,101007.88
2022-12-24T07:29:22.657Z,101002.13
2022-12-24T07:31:51.611Z,101014.75
2022-12-24T07:34:24.760Z,101019.91
2022-12-24T07:36:59.739Z,101035.44
2022-12-24T07:39:34.824Z,101034.13
2022-12-24T07:42:10.509Z,101047.75
2022-12-24T07:44:39.647Z,101049.59
2022-12-24T07:47:11.895Z,101047.47
2022-12-24T07:49:49.443Z,101051.19
2022-12-24T07:52:18.563Z,101052.59
2022-12-24T07:54:45.383Z,101060.06
2022-12-24T07:57:14.182Z,101056.22
2022-12-24T07:59:40.737Z,101066.09
2022-12-24T08:02:17.622Z,101078.59
2022-12-24T08:04:47.190Z,101091.81
2022-12-24T08:07:13.800Z,101090.78
2022-12-24T08:09:42.722Z,101097.97
2022-12-24T08:12:12.131Z,101100.25
2022-12-24T08:14:38.689Z,101102.84
2022-12-24T08:17:05.261Z,101108.59
2022-12-24T08:19:31.977Z,101108.00
2022-12-24T08:21:58.586Z,101110.00
2022-12-24T08:24:25.216Z,101107.72
2022-12-24T08:26:51.733Z,101119.78
2022-12-24T08:29:18.352Z,101108.16
2022-12-24T08:31:44.938Z,101138.63
2022-12-24T08:34:11.813Z,101120.69
2022-12-24T08:36:40.655Z,101135.34
2022-12-24T08:39:10.045Z,101133.63
2022-12-24T08:41:36.907Z,101140.53
2022-12-24T08:44:03.737Z,101142.97
2022-12-24T08:46:30.373Z,101154.31
2022-12-24T08:48:56.945Z,101150.41
2022-12-24T08:51:23.578Z,101154.59
2022-12-24T08:53:50.647Z,101161.19
2022-12-24T08:56:20.175Z,101160.91
2022-12-24T08:58:48.809Z,101177.00
2022-12-24T09:01:18.438Z,101147.13
2022-12-24T09:03:45.189Z,101161.19
2022-12-24T09:06:14.781Z,101175.56
2022-12-24T09:08:41.578Z,101156.75
2022-12-24T09:11:13.943Z,101170.25
2022-12-24T09:13:40.982Z,101182.88
2022-12-24T09:16:11.123Z,101201.09
2022-12-24T09:18:38.408Z,101175.81
2022-12-24T09:21:11.720Z,101189.78
2022-12-24T09:23:44.155Z,101187.13
2022-12-24T09:26:16.934Z,101184.53
2022-12-24T09:28:46.620Z,101200.97
2022-12-24T09:31:18.333Z,101191.13
2022-12-24T09:33:49.723Z,101197.59
2022-12-24T09:36:16.962Z,101216.00
2022-12-24T09:38:43.722Z,101222.91
2022-12-24T09:41:31.642Z,101212.00
2022-12-24T09:44:08.285Z,101213.75
2022-12-24T09:46:41.175Z,101221.53
2022-12-24T09:49:17.197Z,101229.28
2022-12-24T09:52:00.237Z,101224.22
2022-12-24T09:54:36.766Z,101229.66
2022-12-24T09:57:15.570Z,101238.97
2022-12-24T09:59:47.640Z,101246.97
2022-12-24T10:02:19.124Z,101242.03
2022-12-24T10:04:55.090Z,101260.97
2022-12-24T10:11:12.487Z,101249.84
2022-12-24T10:14:15.490Z,101248.97
2022-12-24T10:16:48.743Z,101258.38
2022-12-24T10:19:24.373Z,101249.84
2022-12-24T10:22:00.186Z,101246.78
2022-12-24T10:24:50.827Z,101245.00
2022-12-24T10:27:21.648Z,101244.16
2022-12-24T10:29:54.430Z,101247.81
2022-12-24T10:32:32.848Z,101239.47
2022-12-24T10:35:06.080Z,101242.06
2022-12-24T10:37:35.074Z,101241.34
2022-12-24T10:40:06.056Z,101242.41
2022-12-24T10:42:51.002Z,101247.41
2022-12-24T10:45:21.858Z,101252.88
2022-12-24T10:47:52.901Z,101249.59
2022-12-24T10:50:35.936Z,101246.88
2022-12-24T10:53:27.857Z,101251.88
2022-12-24T10:56:04.010Z,101262.53
2022-12-24T10:58:30.875Z,101264.81
2022-12-24T11:00:57.665Z,101254.28
2022-12-24T11:03:37.247Z,101241.50
2022-12-24T11:06:08.138Z,101258.13
2022-12-24T11:08:42.207Z,101259.31
2022-12-24T11:11:12.806Z,101265.94
2022-12-24T11:13:51.644Z,101265.09
2022-12-24T11:16:35.607Z,101262.19
2022-12-24T11:19:05.205Z,101269.75
2022-12-24T11:21:37.955Z,101263.25
2022-12-24T11:24:12.379Z,101262.81
2022-12-24T11:26:41.505Z,101265.50
2022-12-24T11:29:27.889Z,101269.22
2022-12-24T11:32:17.876Z,101269.22
2022-12-24T11:34:44.884Z,101271.16
2022-12-24T11:37:15.297Z,101266.28
2022-12-24T11:39:47.507Z,101269.16
2022-12-24T11:42:34.030Z,101281.25
2022-12-24T11:45:04.505Z,101284.31
2022-12-24T11:47:40.275Z,101278.69
2022-12-24T11:50:27.411Z,101283.00
2022-12-24T11:53:03.147Z,101288.47
2022-12-24T11:55:50.806Z,101280.09
2022-12-24T11:58:23.120Z,101263.44
2022-12-24T12:00:51.913Z,101273.50
2022-12-24T12:03:34.638Z,101270.53
2022-12-24T12:06:17.081Z,101277.63
2022-12-24T12:08:44.744Z,101292.41
2022-12-24T12:11:14.297Z,101275.00
2022-12-24T12:13:46.063Z,101282.69
2022-12-24T12:17:03.611Z,101292.56
2022-12-24T12:19:43.203Z,101294.84
2022-12-24T12:22:26.918Z,101306.69
2022-12-24T12:24:58.899Z,101302.44
2022-12-24T12:27:35.691Z,101314.09
2022-12-24T12:30:06.643Z,101294.16
2022-12-24T12:32:53.990Z,101301.28
2022-12-24T12:35:28.271Z,101288.78
2022-12-24T12:37:58.861Z,101299.13
2022-12-24T12:41:01.116Z,101300.28
2022-12-24T12:43:39.811Z,101311.91
2022-12-24T12:46:41.202Z,101313.66
2022-12-24T12:49:24.166Z,101310.22
2022-12-24T12:52:00.187Z,101323.91
2022-12-24T12:54:40.255Z,101313.66
2022-12-24T12:57:13.668Z,101320.53
2022-12-24T12:59:52.168Z,101312.06
2022-12-24T13:02:40.542Z,101329.97
2022-12-24T13:05:28.817Z,101332.47
2022-12-24T13:08:24.670Z,101329.31
2022-12-24T13:11:16.064Z,101342.16
2022-12-24T13:14:32.058Z,101348.81
2022-12-24T13:17:26.368Z,101351.69
2022-12-24T13:19:57.780Z,101341.75
2022-12-24T13:22:26.714Z,101337.28
2022-12-24T13:24:55.839Z,101343.38
2022-12-24T13:27:33.073Z,101347.69
2022-12-24T13:30:26.733Z,101340.66
2022-12-24T13:32:57.253Z,101349.75
2022-12-24T13:35:23.789Z,101351.31
2022-12-24T13:37:53.438Z,101351.19
2022-12-24T13:40:27.490Z,101357.97
2022-12-24T13:43:06.366Z,101360.09
2022-12-24T13:45:41.607Z,101360.41
2022-12-24T13:48:11.142Z,101355.09
2022-12-24T13:50:38.982Z,101345.00
2022-12-24T13:53:19.008Z,101352.66
2022-12-24T13:55:57.257Z,101361.84
2022-12-24T13:58:26.096Z,101360.09
2022-12-24T14:01:00.356Z,101359.66
2022-12-24T14:03:47.448Z,101361.84
2022-12-24T14:06:28.334Z,101374.22
2022-12-24T14:09:05.259Z,101367.31
2022-12-24T14:11:58.147Z,101383.56
2022-12-24T14:14:36.957Z,101382.97
2022-12-24T14:17:36.224Z,101388.59
2022-12-24T14:20:09.327Z,101382.84
2022-12-24T14:22:45.953Z,101379.69
2022-12-24T14:25:18.562Z,101384.53
2022-12-24T14:27:51.891Z,101398.94
2022-12-24T14:30:23.674Z,101397.47
2022-12-24T14:32:52.047Z,101396.06
2022-12-24T14:35:31.139Z,101390.25
2022-12-24T14:38:12.443Z,101404.81
2022-12-24T14:40:50.864Z,101415.28
2022-12-24T14:43:45.774Z,101418.44
2022-12-24T14:46:41.737Z,101394.66
2022-12-24T14:49:22.025Z,101417.78
2022-12-24T14:52:38.041Z,101419.94
2022-12-24T14:54:59.960Z,101415.63
2022-12-24T14:57:27.220Z,101421.34
2022-12-24T14:59:59.081Z,101440.44
2022-12-24T15:02:25.797Z,101439.25
2022-12-24T15:05:04.822Z,101437.94
2022-12-24T15:07:36.099Z,101436.28
2022-12-24T15:10:04.815Z,101444.75
2022-12-24T15:12:34.559Z,101444.28
2022-12-24T15:15:03.537Z,101445.84
2022-12-24T15:17:30.172Z,101436.81
2022-12-24T15:19:58.230Z,101416.03
2022-12-24T15:22:29.783Z,101438.63
2022-12-24T15:24:56.372Z,101450.91
2022-12-24T15:27:25.701Z,101456.91
2022-12-24T15:29:57.120Z,101447.50
2022-12-24T15:32:26.218Z,101455.94
2022-12-24T15:35:00.362Z,101456.63
2022-12-24T15:37:37.473Z,101460.72
2022-12-24T15:40:11.444Z,101459.09
2022-12-24T15:42:44.251Z,101454.19
2022-12-24T15:45:26.690Z,101468.22
2022-12-24T15:48:11.021Z,101455.94
2022-12-24T15:50:44.242Z,101451.91
2022-12-24T15:53:26.256Z,101460.53
2022-12-24T15:56:13.620Z,101473.44
2022-12-24T15:58:42.849Z,101473.56
2022-12-24T16:01:09.538Z,101473.09
2022-12-24T16:03:41.560Z,101471.59
2022-12-24T16:06:11.326Z,101484.84
2022-12-24T16:08:40.066Z,101485.84
2022-12-24T16:11:34.776Z,101478.03
2022-12-24T16:14:14.492Z,101484.63
2022-12-24T16:16:43.613Z,101481.19
2022-12-24T16:19:39.515Z,101480.53
2022-12-24T16:22:26.084Z,101481.56
2022-12-24T16:24:52.780Z,101480.78
2022-12-24T16:27:19.329Z,101475.63
2022-12-24T16:29:47.026Z,101472.25
2022-12-24T16:32:38.080Z,101485.50
2022-12-24T16:35:10.551Z,101483.91
2022-12-24T16:37:39.611Z,101489.13
2022-12-24T16:40:09.221Z,101493.41
2022-12-24T16:42:57.908Z,101478.59
2022-12-24T16:45:24.568Z,101497.13
2022-12-24T16:47:56.546Z,101484.16
2022-12-24T16:50:23.079Z,101504.06
2022-12-24T16:52:49.800Z,101499.22
2022-12-24T16:55:16.640Z,101490.81
2022-12-24T16:57:46.032Z,101488.22
2022-12-24T17:00:19.988Z,101491.19
2022-12-24T17:02:47.708Z,101482.53
2022-12-24T17:05:15.457Z,101482.66
2022-12-24T17:07:44.019Z,101489.13
2022-12-24T17:10:14.624Z,101493.78
2022-12-24T17:12:41.567Z,101492.94
2022-12-24T17:15:08.688Z,101488.22
2022-12-24T17:17:35.552Z,101484.78
2022-12-24T17:20:03.238Z,101484.53
2022-12-24T17:22:30.098Z,101492.69
2022-12-24T17:24:56.958Z,101498.38
2022-12-24T17:27:23.567Z,101490.47
2022-12-24T17:29:50.780Z,101505.69
2022-12-24T17:32:17.366Z,101490.84
2022-12-24T17:34:44.016Z,101503.72
2022-12-24T17:37:10.727Z,101509.03
2022-12-24T17:39:37.358Z,101509.28
2022-12-24T17:42:04.275Z,101498.50
2022-12-24T17:44:30.900Z,101492.22
2022-12-24T17:46:57.580Z,101464.88
2022-12-24T17:49:24.242Z,101486.78
2022-12-24T17:51:50.908Z,101496.53
2022-12-24T17:54:19.785Z,101496.41
2022-12-24T17:56:46.488Z,101491.44
2022-12-24T17:59:13.107Z,101489.63
2022-12-24T18:01:39.938Z,101495.19
2022-12-24T18:04:06.581Z,101482.19
2022-12-24T18:06:33.954Z,101497.78
2022-12-24T18:09:00.635Z,101492.47
2022-12-24T18:11:34.379Z,101492.22
2022-12-24T18:14:02.493Z,101495.66
2022-12-24T18:16:35.240Z,101500.97
2022-12-24T18:19:02.754Z,101490.94
2022-12-24T18:21:31.703Z,101490.94
2022-12-24T18:23:59.300Z,101499.88
2022-12-24T18:26:28.103Z,101485.75
2022-12-24T18:28:56.218Z,101499.34
2022-12-24T18:31:23.704Z,101502.84
2022-12-24T18:33:51.777Z,101491.06
2022-12-24T18:36:21.414Z,101492.31
2022-12-24T18:38:48.191Z,101485.38
2022-12-24T18:41:21.286Z,101491.19
2022-12-24T18:43:48.514Z,101480.53
2022-12-24T18:46:20.440Z,101476.84
2022-12-24T18:48:47.650Z,101471.88
2022-12-24T18:51:15.036Z,101458.66
2022-12-24T18:53:47.171Z,101482.53
2022-12-24T18:56:18.328Z,101462.94
2022-12-24T18:58:50.798Z,101474.13
2022-12-24T19:01:21.103Z,101484.88
2022-12-24T19:03:49.318Z,101494.66
2022-12-24T19:06:17.435Z,101502.81
2022-12-24T19:08:57.173Z,101485.97
2022-12-24T19:11:26.146Z,101507.25
2022-12-24T19:13:55.678Z,101499.84
2022-12-24T19:16:24.968Z,101495.16
2022-12-24T19:18:51.607Z,101495.50
2022-12-24T19:21:20.628Z,101500.34
2022-12-24T19:23:47.745Z,101491.56
2022-12-24T19:26:16.070Z,101503.31
2022-12-24T19:28:43.139Z,101467.22
2022-12-24T19:31:12.349Z,101489.97
2022-12-24T19:33:47.910Z,101491.72
2022-12-24T19:36:21.645Z,101500.84
2022-12-24T19:38:48.330Z,101504.06
2022-12-24T19:41:19.667Z,101490.72
2022-12-24T19:43:48.722Z,101504.94
2022-12-24T19:46:17.959Z,101506.78
2022-12-24T19:48:49.574Z,101516.69
2022-12-24T19:51:18.841Z,101499.72
2022-12-24T19:53:45.868Z,101502.84
2022-12-24T19:56:20.750Z,101521.66
2022-12-24T19:58:48.054Z,101503.59
2022-12-24T20:01:17.444Z,101511.50
2022-12-24T20:03:45.051Z,101512.50
2022-12-24T20:06:12.915Z,101516.94
2022-12-24T20:08:40.268Z,101514.72
2022-12-24T20:11:15.438Z,101522.03
2022-12-24T20:13:42.502Z,101512.00
2022-12-24T20:16:10.390Z,101531.06
2022-12-24T20:18:39.537Z,101529.44
2022-12-24T20:21:09.912Z,101525.97
2022-12-24T20:23:41.333Z,101526.72
2022-12-24T20:26:11.142Z,101534.00
2022-12-24T20:28:38.407Z,101540.31
2022-12-24T20:31:22.221Z,101539.81
2022-12-24T20:33:49.252Z,101543.56
2022-12-24T20:36:20.231Z,101533.66
2022-12-24T20:38:47.480Z,101549.00
2022-12-24T20:41:15.873Z,101548.22
2022-12-24T20:43:48.299Z,101521.66
2022-12-24T20:46:16.830Z,101500.38
2022-12-24T20:48:45.834Z,101513.63
2022-12-24T20:51:24.393Z,101513.63
2022-12-24T20:54:00.707Z,101507.16
2022-12-24T20:56:27.966Z,101512.00
2022-12-24T20:58:54.683Z,101513.84
2022-12-24T21:01:25.603Z,101503.84
2022-12-24T21:03:54.227Z,101504.69
2022-12-24T21:06:21.610Z,101492.22
2022-12-24T21:08:49.085Z,101494.94
2022-12-24T21:11:34.326Z,101501.84
2022-12-24T21:14:06.509Z,101505.44
2022-12-24T21:16:36.153Z,101496.66
2022-12-24T21:19:04.167Z,101497.78
2022-12-24T21:21:31.589Z,101504.69
2022-12-24T21:23:58.590Z,101493.69
2022-12-24T21:26:25.128Z,101478.84
2022-12-24T21:28:53.875Z,101489.38
2022-12-24T21:31:22.976Z,101491.84
2022-12-24T21:33:54.778Z,101466.84
2022-12-24T21:36:21.385Z,101471.78
2022-12-24T21:38:50.136Z,101490.22
2022-12-24T21:41:20.534Z,101441.13
2022-12-24T21:43:47.162Z,101455.34
2022-12-24T21:46:17.595Z,101458.56
2022-12-24T21:49:03.320Z,101435.56
2022-12-24T21:51:30.757Z,101443.00
2022-12-24T21:54:15.901Z,101443.97
2022-12-24T21:57:01.234Z,101446.19
2022-12-24T21:59:28.422Z,101461.50
2022-12-24T22:01:56.526Z,101457.31
2022-12-24T22:04:23.743Z,101465.00
2022-12-24T22:07:09.656Z,101463.38
2022-12-24T22:09:57.016Z,101456.94
2022-12-24T22:12:24.529Z,101453.50
2022-12-24T22:14:51.295Z,101463.22
2022-12-24T22:17:25.256Z,101467.19
2022-12-24T22:19:55.516Z,101455.03
2022-12-24T22:22:23.022Z,101446.88
2022-12-24T22:24:49.735Z,101448.72
2022-12-24T22:27:16.336Z,101454.28
2022-12-24T22:29:42.966Z,101450.72
2022-12-24T22:32:09.694Z,101448.34
2022-12-24T22:34:36.723Z,101452.53
2022-12-24T22:37:03.348Z,101442.69
2022-12-24T22:39:29.864Z,101446.88
2022-12-24T22:41:58.087Z,101448.16
2022-12-24T22:44:25.142Z,101444.44
2022-12-24T22:46:54.008Z,101450.88
2022-12-24T22:49:20.826Z,101456.31
2022-12-24T22:51:47.427Z,101458.16
2022-12-24T22:54:14.132Z,101465.72
2022-12-24T22:56:41.746Z,101467.69
2022-12-24T22:59:12.564Z,101462.75
2022-12-24T23:01:41.916Z,101466.44
2022-12-24T23:04:10.904Z,101462.75
2022-12-24T23:06:37.834Z,101465.34
2022-12-24T23:09:07.056Z,101466.34
2022-12-24T23:11:33.944Z,101474.63
2022-12-24T23:14:18.926Z,101486.75
2022-12-24T23:16:45.536Z,101482.19
2022-12-24T23:19:12.781Z,101483.03
2022-12-24T23:21:39.387Z,101494.81
2022-12-24T23:24:12.070Z,101493.91
2022-12-24T23:26:38.753Z,101502.44
2022-12-24T23:29:05.349Z,101510.50
2022-12-24T23:31:34.728Z,101500.38
2022-12-24T23:34:01.617Z,101503.22
2022-12-24T23:36:28.185Z,101505.56
2022-12-24T23:38:54.949Z,101509.03
2022-12-24T23:41:24.097Z,101501.59
2022-12-24T23:43:50.697Z,101494.03
2022-12-24T23:46:18.561Z,101489.63
2022-12-24T23:48:46.013Z,101486.91
2022-12-24T23:51:19.667Z,101479.84
2022-12-24T23:53:48.963Z,101473.53
2022-12-24T23:56:16.180Z,101493.94
2022-12-24T23:58:44.694Z,101490.22
